sensor_id;sensor_type;location;lat;lon;timestamp;pressure;altitude;pressure_sealevel;temperature;humidity
46642;BME280;32370;41.864;-88.124;2022-07-05T00:02:22;98669.97;;;24.79;92.85
46642;BME280;32370;41.864;-88.124;2022-07-05T00:04:49;98661.05;;;25.03;91.59
46642;BME280;32370;41.864;-88.124;2022-07-05T00:07:17;98658.23;;;25.15;91.34
46642;BME280;32370;41.864;-88.124;2022-07-05T00:09:45;98658.11;;;25.24;90.52
46642;BME280;32370;41.864;-88.124;2022-07-05T00:12:14;98653.95;;;25.23;90.35
46642;BME280;32370;41.864;-88.124;2022-07-05T00:14:42;98646.28;;;24.99;90.90
46642;BME280;32370;41.864;-88.124;2022-07-05T00:17:11;98645.55;;;24.92;90.20
46642;BME280;32370;41.864;-88.124;2022-07-05T00:19:40;98645.67;;;24.70;90.68
46642;BME280;32370;41.864;-88.124;2022-07-05T00:22:08;98644.16;;;24.89;92.12
46642;BME280;32370;41.864;-88.124;2022-07-05T00:24:36;98643.04;;;24.58;91.91
46642;BME280;32370;41.864;-88.124;2022-07-05T00:27:05;98640.73;;;24.92;91.87
46642;BME280;32370;41.864;-88.124;2022-07-05T00:29:32;98635.69;;;24.89;90.43
46642;BME280;32370;41.864;-88.124;2022-07-05T00:32:00;98632.82;;;25.21;90.83
46642;BME280;32370;41.864;-88.124;2022-07-05T00:34:27;98632.57;;;24.97;91.73
46642;BME280;32370;41.864;-88.124;2022-07-05T00:36:55;98629.52;;;25.01;90.56
46642;BME280;32370;41.864;-88.124;2022-07-05T00:39:23;98632.38;;;24.73;90.95
46642;BME280;32370;41.864;-88.124;2022-07-05T00:41:51;98629.26;;;25.15;91.11
46642;BME280;32370;41.864;-88.124;2022-07-05T00:44:28;98619.41;;;24.90;90.87
46642;BME280;32370;41.864;-88.124;2022-07-05T00:46:56;98618.22;;;24.92;91.15
46642;BME280;32370;41.864;-88.124;2022-07-05T00:49:24;98618.12;;;24.73;91.47
46642;BME280;32370;41.864;-88.124;2022-07-05T00:51:52;98608.71;;;24.98;90.82
46642;BME280;32370;41.864;-88.124;2022-07-05T00:54:21;98600.09;;;25.02;91.01
46642;BME280;32370;41.864;-88.124;2022-07-05T00:56:49;98597.05;;;25.10;89.76
46642;BME280;32370;41.864;-88.124;2022-07-05T00:59:17;98602.08;;;25.04;90.16
46642;BME280;32370;41.864;-88.124;2022-07-05T01:01:45;98590.44;;;25.61;89.69
46642;BME280;32370;41.864;-88.124;2022-07-05T01:04:13;98582.68;;;24.88;90.80
46642;BME280;32370;41.864;-88.124;2022-07-05T01:06:43;98574.12;;;24.47;92.44
46642;BME280;32370;41.864;-88.124;2022-07-05T01:09:13;98570.22;;;24.68;91.36
46642;BME280;32370;41.864;-88.124;2022-07-05T01:11:44;98566.31;;;25.08;91.01
46642;BME280;32370;41.864;-88.124;2022-07-05T01:14:13;98558.58;;;24.79;91.32
46642;BME280;32370;41.864;-88.124;2022-07-05T01:16:41;98554.84;;;24.46;91.09
46642;BME280;32370;41.864;-88.124;2022-07-05T01:19:11;98554.22;;;24.71;91.37
46642;BME280;32370;41.864;-88.124;2022-07-05T01:21:41;98552.36;;;24.79;91.87
46642;BME280;32370;41.864;-88.124;2022-07-05T01:24:11;98556.96;;;24.52;92.54
46642;BME280;32370;41.864;-88.124;2022-07-05T01:26:41;98560.36;;;24.70;92.10
46642;BME280;32370;41.864;-88.124;2022-07-05T01:29:09;98559.25;;;24.68;92.15
46642;BME280;32370;41.864;-88.124;2022-07-05T01:31:38;98559.78;;;24.48;92.65
46642;BME280;32370;41.864;-88.124;2022-07-05T01:34:06;98559.87;;;24.85;91.16
46642;BME280;32370;41.864;-88.124;2022-07-05T01:36:35;98557.37;;;24.83;90.68
46642;BME280;32370;41.864;-88.124;2022-07-05T01:39:04;98553.11;;;24.83;90.58
46642;BME280;32370;41.864;-88.124;2022-07-05T01:41:33;98550.54;;;24.70;91.20
46642;BME280;32370;41.864;-88.124;2022-07-05T01:44:01;98554.42;;;24.66;90.53
46642;BME280;32370;41.864;-88.124;2022-07-05T01:46:31;98547.00;;;24.76;90.26
46642;BME280;32370;41.864;-88.124;2022-07-05T01:49:03;98542.32;;;24.46;90.95
46642;BME280;32370;41.864;-88.124;2022-07-05T01:51:34;98547.90;;;24.59;90.66
46642;BME280;32370;41.864;-88.124;2022-07-05T01:54:05;98544.68;;;24.35;90.17
46642;BME280;32370;41.864;-88.124;2022-07-05T01:56:32;98539.73;;;24.53;90.17
46642;BME280;32370;41.864;-88.124;2022-07-05T01:59:00;98546.32;;;24.48;89.44
46642;BME280;32370;41.864;-88.124;2022-07-05T02:01:36;98560.81;;;24.49;89.24
46642;BME280;32370;41.864;-88.124;2022-07-05T02:04:05;98573.33;;;24.33;88.77
46642;BME280;32370;41.864;-88.124;2022-07-05T02:06:34;98576.10;;;24.30;88.60
46642;BME280;32370;41.864;-88.124;2022-07-05T02:09:04;98581.14;;;24.51;88.41
46642;BME280;32370;41.864;-88.124;2022-07-05T02:11:32;98585.47;;;24.39;87.84
46642;BME280;32370;41.864;-88.124;2022-07-05T02:14:00;98590.16;;;24.20;88.04
46642;BME280;32370;41.864;-88.124;2022-07-05T02:16:29;98596.92;;;24.43;88.08
46642;BME280;32370;41.864;-88.124;2022-07-05T02:18:56;98600.32;;;24.55;87.54
46642;BME280;32370;41.864;-88.124;2022-07-05T02:21:25;98604.30;;;24.17;87.00
46642;BME280;32370;41.864;-88.124;2022-07-05T02:23:53;98612.95;;;24.30;86.58
46642;BME280;32370;41.864;-88.124;2022-07-05T02:26:21;98603.60;;;24.75;86.24
46642;BME280;32370;41.864;-88.124;2022-07-05T02:28:49;98595.82;;;24.01;86.87
46642;BME280;32370;41.864;-88.124;2022-07-05T02:31:17;98591.25;;;23.92;87.31
46642;BME280;32370;41.864;-88.124;2022-07-05T02:33:45;98565.87;;;24.38;86.54
46642;BME280;32370;41.864;-88.124;2022-07-05T02:36:13;98555.70;;;24.61;86.22
46642;BME280;32370;41.864;-88.124;2022-07-05T02:38:41;98557.98;;;24.33;86.86
46642;BME280;32370;41.864;-88.124;2022-07-05T02:41:10;98565.43;;;23.98;87.35
46642;BME280;32370;41.864;-88.124;2022-07-05T02:43:38;98562.34;;;24.31;86.79
46642;BME280;32370;41.864;-88.124;2022-07-05T02:46:07;98575.39;;;24.40;86.40
46642;BME280;32370;41.864;-88.124;2022-07-05T02:48:36;98593.00;;;24.34;86.38
46642;BME280;32370;41.864;-88.124;2022-07-05T02:51:05;98584.64;;;24.50;86.08
46642;BME280;32370;41.864;-88.124;2022-07-05T02:53:34;98568.49;;;24.26;85.95
46642;BME280;32370;41.864;-88.124;2022-07-05T02:56:02;98556.28;;;24.48;86.06
46642;BME280;32370;41.864;-88.124;2022-07-05T02:58:30;98563.31;;;24.73;84.92
46642;BME280;32370;41.864;-88.124;2022-07-05T03:00:57;98578.92;;;24.97;84.06
46642;BME280;32370;41.864;-88.124;2022-07-05T03:03:25;98591.50;;;24.80;84.44
46642;BME280;32370;41.864;-88.124;2022-07-05T03:05:53;98608.90;;;24.11;85.36
46642;BME280;32370;41.864;-88.124;2022-07-05T03:08:21;98612.44;;;24.73;85.11
46642;BME280;32370;41.864;-88.124;2022-07-05T03:10:48;98620.88;;;24.43;85.97
46642;BME280;32370;41.864;-88.124;2022-07-05T03:13:16;98630.17;;;24.20;86.03
46642;BME280;32370;41.864;-88.124;2022-07-05T03:15:44;98632.13;;;24.46;86.18
46642;BME280;32370;41.864;-88.124;2022-07-05T03:18:11;98626.24;;;24.41;85.67
46642;BME280;32370;41.864;-88.124;2022-07-05T03:20:39;98615.79;;;24.73;85.34
46642;BME280;32370;41.864;-88.124;2022-07-05T03:23:07;98600.23;;;24.75;84.19
46642;BME280;32370;41.864;-88.124;2022-07-05T03:25:35;98591.05;;;24.59;84.38
46642;BME280;32370;41.864;-88.124;2022-07-05T03:28:03;98581.98;;;24.55;84.87
46642;BME280;32370;41.864;-88.124;2022-07-05T03:30:31;98591.47;;;24.41;85.31
46642;BME280;32370;41.864;-88.124;2022-07-05T03:32:59;98598.98;;;24.40;84.59
46642;BME280;32370;41.864;-88.124;2022-07-05T03:35:27;98608.61;;;24.71;84.20
46642;BME280;32370;41.864;-88.124;2022-07-05T03:37:55;98612.97;;;24.52;85.86
46642;BME280;32370;41.864;-88.124;2022-07-05T03:40:23;98621.83;;;24.32;86.19
46642;BME280;32370;41.864;-88.124;2022-07-05T03:42:51;98629.36;;;24.00;86.69
46642;BME280;32370;41.864;-88.124;2022-07-05T03:45:18;98627.63;;;23.98;86.70
46642;BME280;32370;41.864;-88.124;2022-07-05T03:47:46;98634.89;;;24.18;85.98
46642;BME280;32370;41.864;-88.124;2022-07-05T03:50:14;98636.84;;;24.18;85.85
46642;BME280;32370;41.864;-88.124;2022-07-05T03:52:42;98640.59;;;23.98;85.85
46642;BME280;32370;41.864;-88.124;2022-07-05T03:55:09;98640.54;;;24.10;86.51
46642;BME280;32370;41.864;-88.124;2022-07-05T03:57:37;98646.67;;;24.34;87.11
46642;BME280;32370;41.864;-88.124;2022-07-05T04:00:06;98638.38;;;24.40;86.88
46642;BME280;32370;41.864;-88.124;2022-07-05T04:02:34;98628.02;;;24.18;87.03
46642;BME280;32370;41.864;-88.124;2022-07-05T04:05:02;98625.28;;;24.47;87.15
46642;BME280;32370;41.864;-88.124;2022-07-05T04:07:29;98619.03;;;24.11;87.45
46642;BME280;32370;41.864;-88.124;2022-07-05T04:09:57;98615.51;;;24.42;87.38
46642;BME280;32370;41.864;-88.124;2022-07-05T04:12:25;98618.95;;;24.78;86.00
46642;BME280;32370;41.864;-88.124;2022-07-05T04:14:52;98626.07;;;24.72;86.21
46642;BME280;32370;41.864;-88.124;2022-07-05T04:17:20;98616.52;;;24.48;85.97
46642;BME280;32370;41.864;-88.124;2022-07-05T04:19:48;98619.18;;;24.19;87.64
46642;BME280;32370;41.864;-88.124;2022-07-05T04:22:16;98614.40;;;24.72;86.75
46642;BME280;32370;41.864;-88.124;2022-07-05T04:24:43;98606.16;;;24.52;87.47
46642;BME280;32370;41.864;-88.124;2022-07-05T04:27:11;98601.90;;;24.90;87.43
46642;BME280;32370;41.864;-88.124;2022-07-05T04:29:39;98596.54;;;24.73;88.34
46642;BME280;32370;41.864;-88.124;2022-07-05T04:32:07;98593.47;;;24.37;88.20
46642;BME280;32370;41.864;-88.124;2022-07-05T04:34:35;98617.25;;;24.63;87.05
46642;BME280;32370;41.864;-88.124;2022-07-05T04:37:03;98627.85;;;24.87;87.29
46642;BME280;32370;41.864;-88.124;2022-07-05T04:39:30;98611.63;;;24.90;87.50
46642;BME280;32370;41.864;-88.124;2022-07-05T04:41:58;98603.88;;;24.91;87.31
46642;BME280;32370;41.864;-88.124;2022-07-05T04:44:26;98616.67;;;24.84;86.67
46642;BME280;32370;41.864;-88.124;2022-07-05T04:46:53;98626.14;;;24.76;87.02
46642;BME280;32370;41.864;-88.124;2022-07-05T04:49:21;98626.54;;;24.96;87.34
46642;BME280;32370;41.864;-88.124;2022-07-05T04:51:49;98628.41;;;24.67;87.87
46642;BME280;32370;41.864;-88.124;2022-07-05T04:54:16;98630.29;;;25.17;87.37
46642;BME280;32370;41.864;-88.124;2022-07-05T04:56:44;98635.39;;;25.27;87.20
46642;BME280;32370;41.864;-88.124;2022-07-05T04:59:12;98632.33;;;24.47;87.45
46642;BME280;32370;41.864;-88.124;2022-07-05T05:01:40;98630.47;;;25.34;86.93
46642;BME280;32370;41.864;-88.124;2022-07-05T05:04:07;98636.62;;;24.98;86.68
46642;BME280;32370;41.864;-88.124;2022-07-05T05:06:35;98654.84;;;25.32;86.58
46642;BME280;32370;41.864;-88.124;2022-07-05T05:09:03;98676.57;;;25.53;85.36
46642;BME280;32370;41.864;-88.124;2022-07-05T05:11:31;98682.72;;;26.02;84.69
46642;BME280;32370;41.864;-88.124;2022-07-05T05:13:59;98682.69;;;25.88;84.57
46642;BME280;32370;41.864;-88.124;2022-07-05T05:16:27;98689.32;;;25.73;83.38
46642;BME280;32370;41.864;-88.124;2022-07-05T05:18:55;98697.90;;;25.08;85.61
46642;BME280;32370;41.864;-88.124;2022-07-05T05:21:24;98686.21;;;25.31;85.01
46642;BME280;32370;41.864;-88.124;2022-07-05T05:23:51;98736.05;;;25.34;84.65
46642;BME280;32370;41.864;-88.124;2022-07-05T05:26:19;98887.96;;;25.10;86.65
46642;BME280;32370;41.864;-88.124;2022-07-05T05:28:47;98924.84;;;24.87;77.88
46642;BME280;32370;41.864;-88.124;2022-07-05T05:31:14;98901.40;;;24.34;69.03
46642;BME280;32370;41.864;-88.124;2022-07-05T05:33:43;98791.54;;;22.73;76.89
46642;BME280;32370;41.864;-88.124;2022-07-05T05:36:11;98890.25;;;22.23;84.92
46642;BME280;32370;41.864;-88.124;2022-07-05T05:38:38;98913.05;;;21.77;91.70
46642;BME280;32370;41.864;-88.124;2022-07-05T05:41:06;98905.68;;;21.10;96.42
46642;BME280;32370;41.864;-88.124;2022-07-05T05:43:34;98867.03;;;20.84;100.00
46642;BME280;32370;41.864;-88.124;2022-07-05T05:46:03;98837.26;;;19.88;100.00
46642;BME280;32370;41.864;-88.124;2022-07-05T05:48:31;98842.76;;;20.41;100.00
46642;BME280;32370;41.864;-88.124;2022-07-05T05:50:59;98841.08;;;20.30;100.00
46642;BME280;32370;41.864;-88.124;2022-07-05T05:53:27;98887.49;;;19.83;100.00
46642;BME280;32370;41.864;-88.124;2022-07-05T05:55:54;98911.82;;;19.38;100.00
46642;BME280;32370;41.864;-88.124;2022-07-05T05:58:23;98883.94;;;19.67;100.00
46642;BME280;32370;41.864;-88.124;2022-07-05T06:00:51;98878.97;;;20.22;100.00
46642;BME280;32370;41.864;-88.124;2022-07-05T06:03:20;98857.07;;;19.81;100.00
46642;BME280;32370;41.864;-88.124;2022-07-05T06:05:48;98811.26;;;19.64;100.00
46642;BME280;32370;41.864;-88.124;2022-07-05T06:08:16;98804.92;;;19.70;100.00
46642;BME280;32370;41.864;-88.124;2022-07-05T06:10:44;98854.63;;;19.58;100.00
46642;BME280;32370;41.864;-88.124;2022-07-05T06:13:14;98813.36;;;20.07;100.00
46642;BME280;32370;41.864;-88.124;2022-07-05T06:15:42;98738.42;;;20.54;100.00
46642;BME280;32370;41.864;-88.124;2022-07-05T06:18:10;98731.78;;;20.43;100.00
46642;BME280;32370;41.864;-88.124;2022-07-05T06:20:39;98738.07;;;20.05;100.00
46642;BME280;32370;41.864;-88.124;2022-07-05T06:23:07;98719.82;;;20.07;100.00
46642;BME280;32370;41.864;-88.124;2022-07-05T06:25:36;98672.77;;;19.91;100.00
46642;BME280;32370;41.864;-88.124;2022-07-05T06:28:05;98699.28;;;20.16;100.00
46642;BME280;32370;41.864;-88.124;2022-07-05T06:30:35;98692.75;;;20.11;100.00
46642;BME280;32370;41.864;-88.124;2022-07-05T06:33:03;98660.42;;;20.69;100.00
46642;BME280;32370;41.864;-88.124;2022-07-05T06:35:33;98608.27;;;20.90;100.00
46642;BME280;32370;41.864;-88.124;2022-07-05T06:38:02;98624.36;;;20.84;100.00
46642;BME280;32370;41.864;-88.124;2022-07-05T06:40:31;98646.86;;;21.33;100.00
46642;BME280;32370;41.864;-88.124;2022-07-05T06:43:01;98609.37;;;20.70;100.00
46642;BME280;32370;41.864;-88.124;2022-07-05T06:45:29;98562.08;;;20.82;100.00
46642;BME280;32370;41.864;-88.124;2022-07-05T06:47:57;98566.24;;;20.53;100.00
46642;BME280;32370;41.864;-88.124;2022-07-05T06:50:26;98562.99;;;20.73;100.00
46642;BME280;32370;41.864;-88.124;2022-07-05T06:52:54;98543.23;;;21.06;100.00
46642;BME280;32370;41.864;-88.124;2022-07-05T06:55:23;98547.42;;;20.84;100.00
46642;BME280;32370;41.864;-88.124;2022-07-05T06:57:57;98560.99;;;20.04;100.00
46642;BME280;32370;41.864;-88.124;2022-07-05T07:00:26;98559.17;;;20.53;100.00
46642;BME280;32370;41.864;-88.124;2022-07-05T07:02:54;98546.04;;;20.43;100.00
46642;BME280;32370;41.864;-88.124;2022-07-05T07:05:22;98543.81;;;20.49;100.00
46642;BME280;32370;41.864;-88.124;2022-07-05T07:07:50;98535.65;;;20.97;100.00
46642;BME280;32370;41.864;-88.124;2022-07-05T07:10:19;98527.26;;;21.01;100.00
46642;BME280;32370;41.864;-88.124;2022-07-05T07:12:46;98518.10;;;20.93;100.00
46642;BME280;32370;41.864;-88.124;2022-07-05T07:15:14;98513.27;;;20.87;100.00
46642;BME280;32370;41.864;-88.124;2022-07-05T07:17:42;98511.30;;;20.80;100.00
46642;BME280;32370;41.864;-88.124;2022-07-05T07:20:10;98512.43;;;20.66;100.00
46642;BME280;32370;41.864;-88.124;2022-07-05T07:22:38;98511.03;;;20.73;100.00
46642;BME280;32370;41.864;-88.124;2022-07-05T07:25:07;98508.44;;;20.74;100.00
46642;BME280;32370;41.864;-88.124;2022-07-05T07:27:42;98507.74;;;20.82;100.00
46642;BME280;32370;41.864;-88.124;2022-07-05T07:30:12;98512.11;;;21.06;100.00
46642;BME280;32370;41.864;-88.124;2022-07-05T07:32:41;98507.37;;;21.07;100.00
46642;BME280;32370;41.864;-88.124;2022-07-05T07:35:09;98504.14;;;20.94;100.00
46642;BME280;32370;41.864;-88.124;2022-07-05T07:37:38;98509.67;;;21.37;100.00
46642;BME280;32370;41.864;-88.124;2022-07-05T07:40:07;98511.68;;;21.38;100.00
46642;BME280;32370;41.864;-88.124;2022-07-05T07:42:36;98514.84;;;20.85;100.00
46642;BME280;32370;41.864;-88.124;2022-07-05T07:45:04;98517.02;;;20.78;100.00
46642;BME280;32370;41.864;-88.124;2022-07-05T07:47:33;98515.40;;;21.11;100.00
46642;BME280;32370;41.864;-88.124;2022-07-05T07:50:01;98514.98;;;21.47;100.00
46642;BME280;32370;41.864;-88.124;2022-07-05T07:52:29;98516.90;;;21.09;100.00
46642;BME280;32370;41.864;-88.124;2022-07-05T07:54:57;98514.61;;;21.08;100.00
46642;BME280;32370;41.864;-88.124;2022-07-05T07:57:25;98517.96;;;21.27;100.00
46642;BME280;32370;41.864;-88.124;2022-07-05T07:59:53;98513.72;;;21.25;100.00
46642;BME280;32370;41.864;-88.124;2022-07-05T08:02:21;98514.70;;;21.02;100.00
46642;BME280;32370;41.864;-88.124;2022-07-05T08:04:48;98513.10;;;21.11;100.00
46642;BME280;32370;41.864;-88.124;2022-07-05T08:07:16;98519.19;;;21.09;100.00
46642;BME280;32370;41.864;-88.124;2022-07-05T08:09:45;98517.35;;;21.29;100.00
46642;BME280;32370;41.864;-88.124;2022-07-05T08:12:13;98520.77;;;20.94;100.00
46642;BME280;32370;41.864;-88.124;2022-07-05T08:14:41;98521.83;;;20.96;100.00
46642;BME280;32370;41.864;-88.124;2022-07-05T08:17:09;98519.01;;;20.50;100.00
46642;BME280;32370;41.864;-88.124;2022-07-05T08:19:37;98515.91;;;20.95;100.00
46642;BME280;32370;41.864;-88.124;2022-07-05T08:22:05;98519.10;;;20.85;100.00
46642;BME280;32370;41.864;-88.124;2022-07-05T08:24:33;98521.99;;;20.60;100.00
46642;BME280;32370;41.864;-88.124;2022-07-05T08:27:01;98519.08;;;20.33;100.00
46642;BME280;32370;41.864;-88.124;2022-07-05T08:29:29;98516.70;;;20.31;100.00
46642;BME280;32370;41.864;-88.124;2022-07-05T08:31:57;98517.24;;;20.63;100.00
46642;BME280;32370;41.864;-88.124;2022-07-05T08:34:24;98517.36;;;20.76;100.00
46642;BME280;32370;41.864;-88.124;2022-07-05T08:36:52;98516.37;;;20.83;100.00
46642;BME280;32370;41.864;-88.124;2022-07-05T08:39:20;98514.86;;;20.88;100.00
46642;BME280;32370;41.864;-88.124;2022-07-05T08:41:50;98511.62;;;20.87;100.00
46642;BME280;32370;41.864;-88.124;2022-07-05T08:44:19;98510.08;;;20.98;100.00
46642;BME280;32370;41.864;-88.124;2022-07-05T08:46:50;98510.76;;;21.19;100.00
46642;BME280;32370;41.864;-88.124;2022-07-05T08:49:22;98509.75;;;20.90;100.00
46642;BME280;32370;41.864;-88.124;2022-07-05T08:51:50;98511.07;;;21.20;100.00
46642;BME280;32370;41.864;-88.124;2022-07-05T08:54:18;98510.74;;;20.99;100.00
46642;BME280;32370;41.864;-88.124;2022-07-05T08:56:47;98512.60;;;21.07;100.00
46642;BME280;32370;41.864;-88.124;2022-07-05T08:59:14;98515.16;;;20.80;100.00
46642;BME280;32370;41.864;-88.124;2022-07-05T09:01:45;98512.99;;;21.25;100.00
46642;BME280;32370;41.864;-88.124;2022-07-05T09:04:13;98510.86;;;20.94;100.00
46642;BME280;32370;41.864;-88.124;2022-07-05T09:06:47;98512.72;;;20.95;100.00
46642;BME280;32370;41.864;-88.124;2022-07-05T09:09:17;98508.80;;;21.13;100.00
46642;BME280;32370;41.864;-88.124;2022-07-05T09:11:45;98507.23;;;21.30;100.00
46642;BME280;32370;41.864;-88.124;2022-07-05T09:14:20;98508.39;;;21.23;100.00
46642;BME280;32370;41.864;-88.124;2022-07-05T09:16:48;98504.36;;;20.98;100.00
46642;BME280;32370;41.864;-88.124;2022-07-05T09:19:16;98504.67;;;21.28;100.00
46642;BME280;32370;41.864;-88.124;2022-07-05T09:21:43;98504.34;;;21.43;100.00
46642;BME280;32370;41.864;-88.124;2022-07-05T09:24:12;98504.44;;;21.22;100.00
46642;BME280;32370;41.864;-88.124;2022-07-05T09:26:42;98507.24;;;21.08;100.00
46642;BME280;32370;41.864;-88.124;2022-07-05T09:29:12;98509.98;;;21.23;100.00
46642;BME280;32370;41.864;-88.124;2022-07-05T09:31:41;98506.72;;;21.34;100.00
46642;BME280;32370;41.864;-88.124;2022-07-05T09:34:11;98504.21;;;21.23;100.00
46642;BME280;32370;41.864;-88.124;2022-07-05T09:36:48;98505.37;;;21.52;100.00
46642;BME280;32370;41.864;-88.124;2022-07-05T09:39:15;98507.02;;;21.64;100.00
46642;BME280;32370;41.864;-88.124;2022-07-05T09:41:44;98507.72;;;21.40;100.00
46642;BME280;32370;41.864;-88.124;2022-07-05T09:44:24;98510.84;;;21.61;100.00
46642;BME280;32370;41.864;-88.124;2022-07-05T09:47:07;98510.00;;;21.87;100.00
46642;BME280;32370;41.864;-88.124;2022-07-05T09:49:36;98512.80;;;21.54;100.00
46642;BME280;32370;41.864;-88.124;2022-07-05T09:52:05;98511.96;;;21.84;100.00
46642;BME280;32370;41.864;-88.124;2022-07-05T09:54:33;98514.62;;;21.42;100.00
46642;BME280;32370;41.864;-88.124;2022-07-05T09:57:00;98516.86;;;21.21;100.00
46642;BME280;32370;41.864;-88.124;2022-07-05T09:59:28;98515.22;;;21.74;100.00
46642;BME280;32370;41.864;-88.124;2022-07-05T10:01:56;98515.53;;;21.40;100.00
46642;BME280;32370;41.864;-88.124;2022-07-05T10:04:23;98515.82;;;21.81;100.00
46642;BME280;32370;41.864;-88.124;2022-07-05T10:06:51;98516.11;;;22.08;100.00
46642;BME280;32370;41.864;-88.124;2022-07-05T10:09:19;98515.18;;;21.69;100.00
46642;BME280;32370;41.864;-88.124;2022-07-05T10:11:47;98514.99;;;21.67;100.00
46642;BME280;32370;41.864;-88.124;2022-07-05T10:14:20;98520.57;;;21.88;100.00
46642;BME280;32370;41.864;-88.124;2022-07-05T10:16:59;98518.86;;;22.30;100.00
46642;BME280;32370;41.864;-88.124;2022-07-05T10:19:33;98520.44;;;21.94;100.00
46642;BME280;32370;41.864;-88.124;2022-07-05T10:22:01;98518.50;;;21.85;100.00
46642;BME280;32370;41.864;-88.124;2022-07-05T10:24:34;98521.15;;;22.15;100.00
46642;BME280;32370;41.864;-88.124;2022-07-05T10:27:06;98518.09;;;21.97;100.00
46642;BME280;32370;41.864;-88.124;2022-07-05T10:29:35;98516.54;;;21.73;100.00
46642;BME280;32370;41.864;-88.124;2022-07-05T10:32:06;98519.05;;;21.92;100.00
46642;BME280;32370;41.864;-88.124;2022-07-05T10:34:35;98528.73;;;22.19;100.00
46642;BME280;32370;41.864;-88.124;2022-07-05T10:37:05;98531.46;;;22.08;100.00
46642;BME280;32370;41.864;-88.124;2022-07-05T10:39:35;98532.85;;;22.18;100.00
46642;BME280;32370;41.864;-88.124;2022-07-05T10:42:06;98532.86;;;21.78;100.00
46642;BME280;32370;41.864;-88.124;2022-07-05T10:44:34;98537.80;;;22.24;100.00
46642;BME280;32370;41.864;-88.124;2022-07-05T10:47:11;98541.17;;;22.43;100.00
46642;BME280;32370;41.864;-88.124;2022-07-05T10:49:40;98543.46;;;22.62;100.00
46642;BME280;32370;41.864;-88.124;2022-07-05T10:52:22;98546.46;;;22.57;100.00
46642;BME280;32370;41.864;-88.124;2022-07-05T10:55:20;98550.60;;;22.30;100.00
46642;BME280;32370;41.864;-88.124;2022-07-05T10:58:35;98551.03;;;22.43;100.00
46642;BME280;32370;41.864;-88.124;2022-07-05T11:01:38;98550.76;;;23.47;100.00
46642;BME280;32370;41.864;-88.124;2022-07-05T11:04:19;98549.78;;;23.03;100.00
46642;BME280;32370;41.864;-88.124;2022-07-05T11:06:47;98547.70;;;22.83;100.00
46642;BME280;32370;41.864;-88.124;2022-07-05T11:09:16;98552.73;;;22.94;100.00
46642;BME280;32370;41.864;-88.124;2022-07-05T11:11:46;98554.48;;;23.13;100.00
46642;BME280;32370;41.864;-88.124;2022-07-05T11:14:47;98552.07;;;23.68;100.00
46642;BME280;32370;41.864;-88.124;2022-07-05T11:17:19;98553.78;;;23.11;100.00
46642;BME280;32370;41.864;-88.124;2022-07-05T11:20:06;98555.37;;;22.95;100.00
46642;BME280;32370;41.864;-88.124;2022-07-05T11:22:36;98555.61;;;23.16;100.00
46642;BME280;32370;41.864;-88.124;2022-07-05T11:25:06;98556.26;;;23.27;100.00
46642;BME280;32370;41.864;-88.124;2022-07-05T11:27:34;98560.22;;;24.04;100.00
46642;BME280;32370;41.864;-88.124;2022-07-05T11:30:03;98556.02;;;23.64;100.00
46642;BME280;32370;41.864;-88.124;2022-07-05T11:32:38;98559.33;;;23.99;100.00
46642;BME280;32370;41.864;-88.124;2022-07-05T11:35:15;98556.17;;;23.84;100.00
46642;BME280;32370;41.864;-88.124;2022-07-05T11:38:02;98561.19;;;23.93;100.00
46642;BME280;32370;41.864;-88.124;2022-07-05T11:40:32;98564.36;;;23.98;100.00
46642;BME280;32370;41.864;-88.124;2022-07-05T11:43:01;98563.70;;;24.46;100.00
46642;BME280;32370;41.864;-88.124;2022-07-05T11:45:30;98556.39;;;24.51;100.00
46642;BME280;32370;41.864;-88.124;2022-07-05T11:47:58;98565.57;;;23.96;100.00
46642;BME280;32370;41.864;-88.124;2022-07-05T11:50:28;98563.36;;;24.42;100.00
46642;BME280;32370;41.864;-88.124;2022-07-05T11:52:57;98560.73;;;25.01;100.00
46642;BME280;32370;41.864;-88.124;2022-07-05T11:55:26;98566.59;;;24.88;100.00
46642;BME280;32370;41.864;-88.124;2022-07-05T11:57:56;98564.50;;;25.21;100.00
46642;BME280;32370;41.864;-88.124;2022-07-05T12:00:30;98559.44;;;25.12;100.00
46642;BME280;32370;41.864;-88.124;2022-07-05T12:02:58;98562.89;;;25.12;100.00
46642;BME280;32370;41.864;-88.124;2022-07-05T12:05:32;98565.55;;;25.35;100.00
46642;BME280;32370;41.864;-88.124;2022-07-05T12:08:00;98567.72;;;25.33;100.00
46642;BME280;32370;41.864;-88.124;2022-07-05T12:10:28;98562.63;;;25.52;100.00
46642;BME280;32370;41.864;-88.124;2022-07-05T12:13:04;98563.51;;;25.32;100.00
46642;BME280;32370;41.864;-88.124;2022-07-05T12:15:31;98564.34;;;25.15;100.00
46642;BME280;32370;41.864;-88.124;2022-07-05T12:18:01;98564.00;;;25.83;100.00
46642;BME280;32370;41.864;-88.124;2022-07-05T12:20:31;98565.69;;;26.15;100.00
46642;BME280;32370;41.864;-88.124;2022-07-05T12:23:00;98563.69;;;26.52;100.00
46642;BME280;32370;41.864;-88.124;2022-07-05T12:25:30;98563.08;;;26.70;100.00
46642;BME280;32370;41.864;-88.124;2022-07-05T12:28:00;98569.09;;;26.57;100.00
46642;BME280;32370;41.864;-88.124;2022-07-05T12:30:29;98571.76;;;27.00;100.00
46642;BME280;32370;41.864;-88.124;2022-07-05T12:32:58;98566.58;;;26.62;100.00
46642;BME280;32370;41.864;-88.124;2022-07-05T12:35:28;98565.23;;;27.10;100.00
46642;BME280;32370;41.864;-88.124;2022-07-05T12:37:57;98568.49;;;27.02;100.00
46642;BME280;32370;41.864;-88.124;2022-07-05T12:40:29;98569.46;;;27.25;99.21
46642;BME280;32370;41.864;-88.124;2022-07-05T12:43:07;98570.85;;;27.40;98.31
46642;BME280;32370;41.864;-88.124;2022-07-05T12:45:36;98572.83;;;27.95;95.64
46642;BME280;32370;41.864;-88.124;2022-07-05T12:48:05;98571.62;;;27.70;95.17